sensor_id;sensor_type;location;lat;lon;timestamp;pressure;altitude;pressure_sealevel;temperature;humidity
13235;BME280;6683;48.506;9.050;2023-02-19T00:00:58;98618.88;;;13.50;54.69
13235;BME280;6683;48.506;9.050;2023-02-19T00:04:05;98612.34;;;13.52;54.84
13235;BME280;6683;48.506;9.050;2023-02-19T00:07:08;98611.78;;;13.57;54.88
13235;BME280;6683;48.506;9.050;2023-02-19T00:10:10;98609.38;;;13.62;54.78
13235;BME280;6683;48.506;9.050;2023-02-19T00:13:13;98605.09;;;13.68;54.76
13235;BME280;6683;48.506;9.050;2023-02-19T00:16:17;98602.50;;;13.74;54.85
13235;BME280;6683;48.506;9.050;2023-02-19T00:19:22;98604.56;;;13.79;54.83
13235;BME280;6683;48.506;9.050;2023-02-19T00:22:25;98605.59;;;13.84;54.81
13235;BME280;6683;48.506;9.050;2023-02-19T00:25:27;98599.88;;;13.87;54.67
13235;BME280;6683;48.506;9.050;2023-02-19T00:28:30;98603.81;;;13.91;54.60
13235;BME280;6683;48.506;9.050;2023-02-19T00:31:34;98606.03;;;13.94;54.55
13235;BME280;6683;48.506;9.050;2023-02-19T00:34:37;98600.34;;;13.97;54.61
13235;BME280;6683;48.506;9.050;2023-02-19T00:37:40;98603.44;;;14.01;54.56
13235;BME280;6683;48.506;9.050;2023-02-19T00:40:42;98599.72;;;14.02;54.67
13235;BME280;6683;48.506;9.050;2023-02-19T00:43:46;98597.91;;;14.02;54.57
13235;BME280;6683;48.506;9.050;2023-02-19T00:46:49;98591.59;;;14.03;54.60
13235;BME280;6683;48.506;9.050;2023-02-19T00:49:53;98587.91;;;14.04;54.69
13235;BME280;6683;48.506;9.050;2023-02-19T00:52:55;98591.38;;;14.05;54.67
13235;BME280;6683;48.506;9.050;2023-02-19T00:55:57;98598.97;;;14.08;54.52
13235;BME280;6683;48.506;9.050;2023-02-19T00:59:00;98602.41;;;14.08;54.66
13235;BME280;6683;48.506;9.050;2023-02-19T01:02:02;98606.53;;;14.11;54.66
13235;BME280;6683;48.506;9.050;2023-02-19T01:05:07;98607.13;;;14.13;54.36
13235;BME280;6683;48.506;9.050;2023-02-19T01:08:10;98602.44;;;14.15;54.50
13235;BME280;6683;48.506;9.050;2023-02-19T01:11:13;98593.47;;;14.16;54.58
13235;BME280;6683;48.506;9.050;2023-02-19T01:14:15;98601.44;;;14.16;54.36
13235;BME280;6683;48.506;9.050;2023-02-19T01:17:18;98595.72;;;14.19;54.55
13235;BME280;6683;48.506;9.050;2023-02-19T01:20:22;98590.25;;;14.20;54.53
13235;BME280;6683;48.506;9.050;2023-02-19T01:23:24;98595.34;;;14.22;54.58
13235;BME280;6683;48.506;9.050;2023-02-19T01:26:29;98591.25;;;14.26;54.45
13235;BME280;6683;48.506;9.050;2023-02-19T01:29:32;98578.59;;;14.28;54.53
13235;BME280;6683;48.506;9.050;2023-02-19T01:32:34;98580.88;;;14.31;54.45
13235;BME280;6683;48.506;9.050;2023-02-19T01:35:39;98580.69;;;14.32;54.37
13235;BME280;6683;48.506;9.050;2023-02-19T01:38:42;98595.41;;;14.35;54.37
13235;BME280;6683;48.506;9.050;2023-02-19T01:41:44;98590.50;;;14.38;54.34
13235;BME280;6683;48.506;9.050;2023-02-19T01:45:25;98586.63;;;14.41;54.34
13235;BME280;6683;48.506;9.050;2023-02-19T01:48:32;98590.91;;;14.42;54.20
13235;BME280;6683;48.506;9.050;2023-02-19T01:51:42;98575.19;;;14.40;54.06
13235;BME280;6683;48.506;9.050;2023-02-19T01:54:46;98566.19;;;14.41;54.04
13235;BME280;6683;48.506;9.050;2023-02-19T01:57:52;98569.66;;;14.42;53.95
13235;BME280;6683;48.506;9.050;2023-02-19T02:00:57;98562.75;;;14.41;53.97
13235;BME280;6683;48.506;9.050;2023-02-19T02:04:00;98563.53;;;14.41;53.80
13235;BME280;6683;48.506;9.050;2023-02-19T02:07:05;98564.56;;;14.40;53.91
13235;BME280;6683;48.506;9.050;2023-02-19T02:10:28;98558.03;;;14.43;53.90
13235;BME280;6683;48.506;9.050;2023-02-19T02:13:29;98560.69;;;14.43;53.83
13235;BME280;6683;48.506;9.050;2023-02-19T02:16:42;98567.84;;;14.43;53.66
13235;BME280;6683;48.506;9.050;2023-02-19T02:20:06;98567.84;;;14.43;53.73
13235;BME280;6683;48.506;9.050;2023-02-19T02:23:28;98582.13;;;14.41;53.69
13235;BME280;6683;48.506;9.050;2023-02-19T02:26:52;98574.38;;;14.40;53.47
13235;BME280;6683;48.506;9.050;2023-02-19T02:30:41;98589.69;;;14.38;53.58
13235;BME280;6683;48.506;9.050;2023-02-19T02:33:49;98585.41;;;14.37;53.57
13235;BME280;6683;48.506;9.050;2023-02-19T02:36:55;98570.69;;;14.34;53.71
13235;BME280;6683;48.506;9.050;2023-02-19T02:39:59;98573.56;;;14.33;53.62
13235;BME280;6683;48.506;9.050;2023-02-19T02:43:03;98566.81;;;14.30;53.48
13235;BME280;6683;48.506;9.050;2023-02-19T02:46:10;98567.97;;;14.28;53.52
13235;BME280;6683;48.506;9.050;2023-02-19T02:49:18;98565.72;;;14.25;53.48
13235;BME280;6683;48.506;9.050;2023-02-19T02:52:21;98564.09;;;14.24;53.52
13235;BME280;6683;48.506;9.050;2023-02-19T02:55:44;98558.38;;;14.20;53.52
13235;BME280;6683;48.506;9.050;2023-02-19T02:58:49;98555.72;;;14.20;53.51
13235;BME280;6683;48.506;9.050;2023-02-19T03:01:56;98553.66;;;14.16;53.48
13235;BME280;6683;48.506;9.050;2023-02-19T03:05:16;98544.88;;;14.15;53.48
13235;BME280;6683;48.506;9.050;2023-02-19T03:08:56;98534.03;;;14.10;53.42
13235;BME280;6683;48.506;9.050;2023-02-19T03:12:02;98526.47;;;14.07;53.35
13235;BME280;6683;48.506;9.050;2023-02-19T03:15:24;98527.69;;;14.05;53.35
13235;BME280;6683;48.506;9.050;2023-02-19T03:18:52;98529.94;;;14.01;53.83
13235;BME280;6683;48.506;9.050;2023-02-19T03:22:17;98533.78;;;13.99;53.39
13235;BME280;6683;48.506;9.050;2023-02-19T03:25:25;98538.50;;;13.97;53.37
13235;BME280;6683;48.506;9.050;2023-02-19T03:28:48;98526.22;;;13.96;53.54
13235;BME280;6683;48.506;9.050;2023-02-19T03:32:14;98519.69;;;13.92;53.50
13235;BME280;6683;48.506;9.050;2023-02-19T03:35:23;98528.88;;;13.89;53.57
13235;BME280;6683;48.506;9.050;2023-02-19T03:38:33;98532.75;;;13.87;53.48
13235;BME280;6683;48.506;9.050;2023-02-19T03:41:49;98531.31;;;13.84;53.63
13235;BME280;6683;48.506;9.050;2023-02-19T03:45:12;98527.19;;;13.82;53.65
13235;BME280;6683;48.506;9.050;2023-02-19T03:48:27;98533.09;;;13.77;53.55
13235;BME280;6683;48.506;9.050;2023-02-19T03:51:38;98543.91;;;13.76;53.58
13235;BME280;6683;48.506;9.050;2023-02-19T03:54:49;98541.25;;;13.76;53.56
13235;BME280;6683;48.506;9.050;2023-02-19T03:57:57;98544.94;;;13.75;53.52
13235;BME280;6683;48.506;9.050;2023-02-19T04:01:05;98553.91;;;13.74;53.62
13235;BME280;6683;48.506;9.050;2023-02-19T04:04:15;98551.63;;;13.71;53.63
13235;BME280;6683;48.506;9.050;2023-02-19T04:07:21;98544.91;;;13.68;53.68
13235;BME280;6683;48.506;9.050;2023-02-19T04:10:24;98549.41;;;13.68;53.69
13235;BME280;6683;48.506;9.050;2023-02-19T04:13:31;98546.13;;;13.66;53.67
13235;BME280;6683;48.506;9.050;2023-02-19T04:16:40;98553.47;;;13.63;53.69
13235;BME280;6683;48.506;9.050;2023-02-19T04:19:45;98549.16;;;13.62;53.93
13235;BME280;6683;48.506;9.050;2023-02-19T04:22:51;98550.19;;;13.61;53.77
13235;BME280;6683;48.506;9.050;2023-02-19T04:25:57;98562.00;;;13.59;53.96
13235;BME280;6683;48.506;9.050;2023-02-19T04:29:01;98564.84;;;13.57;53.85
13235;BME280;6683;48.506;9.050;2023-02-19T04:32:04;98565.03;;;13.56;54.14
13235;BME280;6683;48.506;9.050;2023-02-19T04:35:07;98567.88;;;13.54;54.00
13235;BME280;6683;48.506;9.050;2023-02-19T04:38:10;98565.66;;;13.51;53.95
13235;BME280;6683;48.506;9.050;2023-02-19T04:41:14;98573.78;;;13.50;54.21
13235;BME280;6683;48.506;9.050;2023-02-19T04:44:16;98579.28;;;13.48;54.15
13235;BME280;6683;48.506;9.050;2023-02-19T04:47:18;98582.13;;;13.47;54.30
13235;BME280;6683;48.506;9.050;2023-02-19T04:50:21;98580.47;;;13.46;54.21
13235;BME280;6683;48.506;9.050;2023-02-19T04:53:24;98580.91;;;13.43;54.30
13235;BME280;6683;48.506;9.050;2023-02-19T04:56:27;98574.13;;;13.40;54.31
13235;BME280;6683;48.506;9.050;2023-02-19T04:59:30;98586.56;;;13.40;54.42
13235;BME280;6683;48.506;9.050;2023-02-19T05:02:32;98592.91;;;13.39;54.47
13235;BME280;6683;48.506;9.050;2023-02-19T05:05:34;98587.78;;;13.37;54.69
13235;BME280;6683;48.506;9.050;2023-02-19T05:08:39;98596.34;;;13.33;54.76
13235;BME280;6683;48.506;9.050;2023-02-19T05:11:41;98601.63;;;13.33;54.77
13235;BME280;6683;48.506;9.050;2023-02-19T05:14:44;98602.84;;;13.30;54.76
13235;BME280;6683;48.506;9.050;2023-02-19T05:17:46;98604.88;;;13.28;54.67
13235;BME280;6683;48.506;9.050;2023-02-19T05:20:50;98597.91;;;13.27;54.90
13235;BME280;6683;48.506;9.050;2023-02-19T05:23:53;98597.28;;;13.25;54.85
13235;BME280;6683;48.506;9.050;2023-02-19T05:26:55;98594.84;;;13.24;54.98
13235;BME280;6683;48.506;9.050;2023-02-19T05:29:58;98599.50;;;13.22;55.03
13235;BME280;6683;48.506;9.050;2023-02-19T05:33:00;98611.13;;;13.21;55.02
13235;BME280;6683;48.506;9.050;2023-02-19T05:36:06;98610.69;;;13.17;55.14
13235;BME280;6683;48.506;9.050;2023-02-19T05:39:11;98624.94;;;13.16;55.07
13235;BME280;6683;48.506;9.050;2023-02-19T05:42:13;98630.25;;;13.16;55.10
13235;BME280;6683;48.506;9.050;2023-02-19T05:45:16;98624.16;;;13.16;55.26
13235;BME280;6683;48.506;9.050;2023-02-19T05:48:18;98617.38;;;13.13;55.31
13235;BME280;6683;48.506;9.050;2023-02-19T05:51:24;98623.06;;;13.10;55.20
13235;BME280;6683;48.506;9.050;2023-02-19T05:54:29;98623.25;;;13.09;55.26
13235;BME280;6683;48.506;9.050;2023-02-19T05:57:31;98626.72;;;13.09;55.42
13235;BME280;6683;48.506;9.050;2023-02-19T06:00:33;98627.94;;;13.07;55.23
13235;BME280;6683;48.506;9.050;2023-02-19T06:03:35;98629.94;;;13.05;55.50
13235;BME280;6683;48.506;9.050;2023-02-19T06:06:38;98633.59;;;13.04;55.40
13235;BME280;6683;48.506;9.050;2023-02-19T06:09:42;98649.88;;;13.01;55.58
13235;BME280;6683;48.506;9.050;2023-02-19T06:12:45;98644.56;;;13.01;55.38
13235;BME280;6683;48.506;9.050;2023-02-19T06:15:47;98653.72;;;12.98;55.68
13235;BME280;6683;48.506;9.050;2023-02-19T06:18:50;98660.84;;;12.98;55.47
13235;BME280;6683;48.506;9.050;2023-02-19T06:21:53;98663.31;;;12.99;55.64
13235;BME280;6683;48.506;9.050;2023-02-19T06:24:57;98661.66;;;12.98;55.78
13235;BME280;6683;48.506;9.050;2023-02-19T06:27:59;98673.91;;;12.99;55.69
13235;BME280;6683;48.506;9.050;2023-02-19T06:31:02;98674.91;;;12.98;55.70
13235;BME280;6683;48.506;9.050;2023-02-19T06:34:05;98691.63;;;12.99;55.78
13235;BME280;6683;48.506;9.050;2023-02-19T06:37:07;98694.28;;;12.99;55.53
13235;BME280;6683;48.506;9.050;2023-02-19T06:40:11;98702.25;;;12.99;55.64
13235;BME280;6683;48.506;9.050;2023-02-19T06:43:13;98708.16;;;13.01;55.82
13235;BME280;6683;48.506;9.050;2023-02-19T06:46:16;98722.25;;;13.01;55.67
13235;BME280;6683;48.506;9.050;2023-02-19T06:49:18;98724.91;;;13.01;55.58
13235;BME280;6683;48.506;9.050;2023-02-19T06:52:20;98725.69;;;13.02;55.65
13235;BME280;6683;48.506;9.050;2023-02-19T06:55:24;98741.78;;;13.00;55.60
13235;BME280;6683;48.506;9.050;2023-02-19T06:58:27;98762.34;;;12.98;55.72
13235;BME280;6683;48.506;9.050;2023-02-19T07:01:32;98758.84;;;12.91;55.91
13235;BME280;6683;48.506;9.050;2023-02-19T07:04:34;98766.50;;;12.86;56.10
13235;BME280;6683;48.506;9.050;2023-02-19T07:07:36;98772.16;;;12.83;56.28
13235;BME280;6683;48.506;9.050;2023-02-19T07:10:40;98778.69;;;12.80;56.11
13235;BME280;6683;48.506;9.050;2023-02-19T07:13:43;98777.03;;;12.79;56.29
13235;BME280;6683;48.506;9.050;2023-02-19T07:16:46;98790.66;;;12.76;56.27
13235;BME280;6683;48.506;9.050;2023-02-19T07:19:49;98783.91;;;12.74;56.22
13235;BME280;6683;48.506;9.050;2023-02-19T07:22:51;98788.38;;;12.73;56.40
13235;BME280;6683;48.506;9.050;2023-02-19T07:25:55;98795.50;;;12.73;56.26
13235;BME280;6683;48.506;9.050;2023-02-19T07:28:57;98791.22;;;12.72;56.34
13235;BME280;6683;48.506;9.050;2023-02-19T07:31:59;98801.81;;;12.72;56.48
13235;BME280;6683;48.506;9.050;2023-02-19T07:35:01;98802.59;;;12.72;56.32
13235;BME280;6683;48.506;9.050;2023-02-19T07:38:03;98810.38;;;12.74;56.31
13235;BME280;6683;48.506;9.050;2023-02-19T07:41:07;98799.78;;;12.74;56.51
13235;BME280;6683;48.506;9.050;2023-02-19T07:44:10;98797.78;;;12.76;56.40
13235;BME280;6683;48.506;9.050;2023-02-19T07:47:16;98800.03;;;12.79;56.06
13235;BME280;6683;48.506;9.050;2023-02-19T07:50:18;98796.41;;;12.80;55.92
13235;BME280;6683;48.506;9.050;2023-02-19T07:53:22;98799.88;;;12.80;55.99
13235;BME280;6683;48.506;9.050;2023-02-19T07:56:27;98797.88;;;12.82;55.67
13235;BME280;6683;48.506;9.050;2023-02-19T07:59:29;98808.91;;;12.86;55.71
13235;BME280;6683;48.506;9.050;2023-02-19T08:02:32;98812.00;;;12.90;55.74
13235;BME280;6683;48.506;9.050;2023-02-19T08:05:51;98810.81;;;12.92;55.65
13235;BME280;6683;48.506;9.050;2023-02-19T08:08:54;98809.63;;;12.95;55.45
13235;BME280;6683;48.506;9.050;2023-02-19T08:11:59;98815.34;;;12.98;55.45
13235;BME280;6683;48.506;9.050;2023-02-19T08:15:18;98821.28;;;13.00;55.38
13235;BME280;6683;48.506;9.050;2023-02-19T08:18:24;98822.13;;;13.01;55.22
13235;BME280;6683;48.506;9.050;2023-02-19T08:21:26;98820.94;;;13.03;55.16
13235;BME280;6683;48.506;9.050;2023-02-19T08:24:29;98820.31;;;13.01;55.30
13235;BME280;6683;48.506;9.050;2023-02-19T08:27:35;98828.25;;;13.01;55.14
13235;BME280;6683;48.506;9.050;2023-02-19T08:30:38;98826.78;;;12.99;55.14
13235;BME280;6683;48.506;9.050;2023-02-19T08:33:41;98834.75;;;12.99;55.13
13235;BME280;6683;48.506;9.050;2023-02-19T08:36:43;98841.03;;;12.98;55.29
13235;BME280;6683;48.506;9.050;2023-02-19T08:39:45;98838.97;;;12.93;55.37
13235;BME280;6683;48.506;9.050;2023-02-19T08:42:49;98847.06;;;12.92;55.57
13235;BME280;6683;48.506;9.050;2023-02-19T08:45:52;98849.09;;;12.90;55.69
13235;BME280;6683;48.506;9.050;2023-02-19T08:48:55;98844.63;;;12.90;55.65
13235;BME280;6683;48.506;9.050;2023-02-19T08:51:57;98849.56;;;12.93;55.67
13235;BME280;6683;48.506;9.050;2023-02-19T08:54:59;98859.78;;;12.96;55.68
13235;BME280;6683;48.506;9.050;2023-02-19T08:58:04;98858.59;;;12.99;55.73
13235;BME280;6683;48.506;9.050;2023-02-19T09:01:08;98867.38;;;12.99;55.75
13235;BME280;6683;48.506;9.050;2023-02-19T09:04:11;98858.41;;;13.00;55.36
13235;BME280;6683;48.506;9.050;2023-02-19T09:07:17;98856.38;;;13.02;55.50
13235;BME280;6683;48.506;9.050;2023-02-19T09:10:20;98856.88;;;13.06;55.56
13235;BME280;6683;48.506;9.050;2023-02-19T09:13:23;98864.63;;;13.07;55.45
13235;BME280;6683;48.506;9.050;2023-02-19T09:16:26;98866.91;;;13.10;55.49
13235;BME280;6683;48.506;9.050;2023-02-19T09:19:29;98865.91;;;13.11;55.40
13235;BME280;6683;48.506;9.050;2023-02-19T09:22:31;98870.19;;;13.12;55.37
13235;BME280;6683;48.506;9.050;2023-02-19T09:25:34;98881.41;;;13.14;55.46
13235;BME280;6683;48.506;9.050;2023-02-19T09:28:38;98874.50;;;13.13;55.08
13235;BME280;6683;48.506;9.050;2023-02-19T09:31:42;98893.03;;;13.13;55.09
13235;BME280;6683;48.506;9.050;2023-02-19T09:34:45;98910.41;;;13.16;55.09
13235;BME280;6683;48.506;9.050;2023-02-19T09:37:47;98909.03;;;13.20;55.31
13235;BME280;6683;48.506;9.050;2023-02-19T09:40:49;98900.34;;;13.26;55.24
13235;BME280;6683;48.506;9.050;2023-02-19T09:43:53;98903.22;;;13.31;55.27
13235;BME280;6683;48.506;9.050;2023-02-19T09:46:56;98910.84;;;13.34;55.01
13235;BME280;6683;48.506;9.050;2023-02-19T09:50:04;98921.25;;;13.35;54.68
13235;BME280;6683;48.506;9.050;2023-02-19T09:53:14;98928.41;;;13.35;54.75
13235;BME280;6683;48.506;9.050;2023-02-19T09:56:18;98942.66;;;13.34;54.61
13235;BME280;6683;48.506;9.050;2023-02-19T09:59:26;98954.28;;;13.33;54.40
13235;BME280;6683;48.506;9.050;2023-02-19T10:02:30;98950.59;;;13.34;54.39
13235;BME280;6683;48.506;9.050;2023-02-19T10:05:33;98947.31;;;13.32;54.41
13235;BME280;6683;48.506;9.050;2023-02-19T10:08:35;98955.63;;;13.29;54.45
13235;BME280;6683;48.506;9.050;2023-02-19T10:11:38;98959.22;;;13.21;54.63
13235;BME280;6683;48.506;9.050;2023-02-19T10:14:45;98960.50;;;13.11;54.88
13235;BME280;6683;48.506;9.050;2023-02-19T10:17:49;98965.22;;;13.01;54.95
13235;BME280;6683;48.506;9.050;2023-02-19T10:20:52;98970.97;;;12.90;55.46
13235;BME280;6683;48.506;9.050;2023-02-19T10:23:57;98967.97;;;12.78;55.53
13235;BME280;6683;48.506;9.050;2023-02-19T10:27:01;98979.09;;;12.73;55.78
13235;BME280;6683;48.506;9.050;2023-02-19T10:30:09;98971.03;;;12.67;55.85
13235;BME280;6683;48.506;9.050;2023-02-19T10:33:17;98966.28;;;12.62;56.14
13235;BME280;6683;48.506;9.050;2023-02-19T10:36:28;98958.53;;;12.61;55.87
13235;BME280;6683;48.506;9.050;2023-02-19T10:39:39;98955.34;;;12.65;56.09
13235;BME280;6683;48.506;9.050;2023-02-19T10:42:45;98951.25;;;12.77;56.28
13235;BME280;6683;48.506;9.050;2023-02-19T10:45:50;98967.38;;;13.05;56.20
13235;BME280;6683;48.506;9.050;2023-02-19T10:48:54;98967.69;;;13.31;56.03
13235;BME280;6683;48.506;9.050;2023-02-19T10:52:02;98962.84;;;13.49;55.75
13235;BME280;6683;48.506;9.050;2023-02-19T10:55:27;98960.63;;;13.53;55.70
13235;BME280;6683;48.506;9.050;2023-02-19T10:58:30;98974.53;;;13.55;55.94
13235;BME280;6683;48.506;9.050;2023-02-19T11:01:36;98977.19;;;13.55;55.90
13235;BME280;6683;48.506;9.050;2023-02-19T11:04:40;98990.88;;;13.58;56.13
13235;BME280;6683;48.506;9.050;2023-02-19T11:07:46;98965.63;;;13.62;56.00
13235;BME280;6683;48.506;9.050;2023-02-19T11:10:49;98959.97;;;13.66;56.23
13235;BME280;6683;48.506;9.050;2023-02-19T11:13:53;98961.50;;;13.75;56.02
13235;BME280;6683;48.506;9.050;2023-02-19T11:17:00;98958.97;;;13.88;56.06
13235;BME280;6683;48.506;9.050;2023-02-19T11:20:12;98947.03;;;13.98;55.58
13235;BME280;6683;48.506;9.050;2023-02-19T11:23:18;98960.38;;;14.05;55.25
13235;BME280;6683;48.506;9.050;2023-02-19T11:26:25;98958.97;;;14.09;55.02
13235;BME280;6683;48.506;9.050;2023-02-19T11:29:28;98949.81;;;14.11;54.71
13235;BME280;6683;48.506;9.050;2023-02-19T11:32:36;98944.50;;;14.11;54.48
13235;BME280;6683;48.506;9.050;2023-02-19T11:35:38;98938.16;;;14.12;54.14
13235;BME280;6683;48.506;9.050;2023-02-19T11:38:41;98944.50;;;14.11;54.14
13235;BME280;6683;48.506;9.050;2023-02-19T11:42:22;98944.31;;;14.13;54.01
13235;BME280;6683;48.506;9.050;2023-02-19T11:45:36;98929.00;;;14.15;53.75
13235;BME280;6683;48.506;9.050;2023-02-19T11:48:54;98934.13;;;14.16;53.66
13235;BME280;6683;48.506;9.050;2023-02-19T11:52:16;98934.78;;;14.18;53.47
13235;BME280;6683;48.506;9.050;2023-02-19T11:55:38;98947.84;;;14.20;53.16
13235;BME280;6683;48.506;9.050;2023-02-19T11:59:02;98948.69;;;14.20;53.12
13235;BME280;6683;48.506;9.050;2023-02-19T12:06:08;98951.50;;;14.19;52.98
13235;BME280;6683;48.506;9.050;2023-02-19T12:09:35;98953.16;;;14.20;52.79
13235;BME280;6683;48.506;9.050;2023-02-19T12:12:55;98951.66;;;14.32;52.74
13235;BME280;6683;48.506;9.050;2023-02-19T12:16:18;98961.78;;;14.43;52.51
13235;BME280;6683;48.506;9.050;2023-02-19T12:19:54;98972.63;;;14.48;52.43
13235;BME280;6683;48.506;9.050;2023-02-19T12:23:30;98973.88;;;14.52;52.37
13235;BME280;6683;48.506;9.050;2023-02-19T12:26:40;98972.13;;;14.59;52.53
13235;BME280;6683;48.506;9.050;2023-02-19T12:30:08;98980.91;;;14.60;52.36
13235;BME280;6683;48.506;9.050;2023-02-19T12:37:24;98973.88;;;14.52;52.09
13235;BME280;6683;48.506;9.050;2023-02-19T12:40:52;98968.34;;;14.47;52.07
13235;BME280;6683;48.506;9.050;2023-02-19T12:44:02;98969.91;;;14.41;52.12
13235;BME280;6683;48.506;9.050;2023-02-19T12:47:14;98958.22;;;14.36;51.88
13235;BME280;6683;48.506;9.050;2023-02-19T12:50:22;98947.19;;;14.32;51.80
13235;BME280;6683;48.506;9.050;2023-02-19T12:53:38;98958.91;;;14.23;51.91
13235;BME280;6683;48.506;9.050;2023-02-19T12:56:47;98955.81;;;14.20;51.82
13235;BME280;6683;48.506;9.050;2023-02-19T12:59:54;98935.56;;;14.19;51.99
13235;BME280;6683;48.506;9.050;2023-02-19T13:03:04;98938.88;;;14.21;51.96
13235;BME280;6683;48.506;9.050;2023-02-19T13:06:23;98941.16;;;14.24;51.90
13235;BME280;6683;48.506;9.050;2023-02-19T13:09:33;98916.81;;;14.20;51.81
13235;BME280;6683;48.506;9.050;2023-02-19T13:12:41;98917.38;;;14.16;51.95
13235;BME280;6683;48.506;9.050;2023-02-19T13:15:49;98891.84;;;14.15;52.04
13235;BME280;6683;48.506;9.050;2023-02-19T13:18:55;98894.97;;;14.25;52.12
13235;BME280;6683;48.506;9.050;2023-02-19T13:22:14;98893.91;;;14.40;52.09
13235;BME280;6683;48.506;9.050;2023-02-19T13:25:52;98902.97;;;14.53;51.80
13235;BME280;6683;48.506;9.050;2023-02-19T13:29:14;98901.25;;;14.66;51.62
13235;BME280;6683;48.506;9.050;2023-02-19T13:32:56;98904.00;;;14.86;51.47
13235;BME280;6683;48.506;9.050;2023-02-19T13:36:19;98894.28;;;14.99;50.94
13235;BME280;6683;48.506;9.050;2023-02-19T13:39:23;98904.75;;;15.07;50.81
13235;BME280;6683;48.506;9.050;2023-02-19T13:42:29;98923.97;;;15.09;50.44
13235;BME280;6683;48.506;9.050;2023-02-19T13:45:38;98925.19;;;15.07;50.06
13235;BME280;6683;48.506;9.050;2023-02-19T13:48:42;98917.16;;;15.00;50.08
13235;BME280;6683;48.506;9.050;2023-02-19T13:51:49;98923.06;;;14.96;49.86
13235;BME280;6683;48.506;9.050;2023-02-19T13:55:49;98929.19;;;14.90;50.02
13235;BME280;6683;48.506;9.050;2023-02-19T13:58:54;98908.69;;;14.84;50.01
13235;BME280;6683;48.506;9.050;2023-02-19T14:05:59;98911.25;;;14.71;49.73
13235;BME280;6683;48.506;9.050;2023-02-19T14:09:02;98923.13;;;14.68;49.67
13235;BME280;6683;48.506;9.050;2023-02-19T14:12:18;98916.38;;;14.66;49.76
13235;BME280;6683;48.506;9.050;2023-02-19T14:15:42;98915.31;;;14.60;49.64
13235;BME280;6683;48.506;9.050;2023-02-19T14:18:45;98914.03;;;14.56;49.48
13235;BME280;6683;48.506;9.050;2023-02-19T14:21:47;98907.66;;;14.51;49.43
13235;BME280;6683;48.506;9.050;2023-02-19T14:24:52;98919.06;;;14.45;49.45
13235;BME280;6683;48.506;9.050;2023-02-19T14:28:01;98929.44;;;14.39;49.48
13235;BME280;6683;48.506;9.050;2023-02-19T14:31:31;98932.88;;;14.33;49.38
13235;BME280;6683;48.506;9.050;2023-02-19T14:34:35;98940.63;;;14.28;49.35
13235;BME280;6683;48.506;9.050;2023-02-19T14:37:37;98950.50;;;14.20;49.48
13235;BME280;6683;48.506;9.050;2023-02-19T14:40:41;98958.16;;;14.08;49.66
13235;BME280;6683;48.506;9.050;2023-02-19T14:43:51;98969.09;;;13.99;49.97
13235;BME280;6683;48.506;9.050;2023-02-19T14:46:58;98964.53;;;13.93;50.03
13235;BME280;6683;48.506;9.050;2023-02-19T14:50:08;98968.59;;;13.89;50.31
13235;BME280;6683;48.506;9.050;2023-02-19T14:53:16;98958.34;;;13.86;50.31
13235;BME280;6683;48.506;9.050;2023-02-19T14:56:24;98964.84;;;13.83;50.54
13235;BME280;6683;48.506;9.050;2023-02-19T14:59:29;98960.47;;;13.76;50.44
13235;BME280;6683;48.506;9.050;2023-02-19T15:02:31;98957.19;;;13.74;50.27
13235;BME280;6683;48.506;9.050;2023-02-19T15:05:35;98954.72;;;13.72;50.21
13235;BME280;6683;48.506;9.050;2023-02-19T15:08:43;98962.06;;;13.70;50.39
13235;BME280;6683;48.506;9.050;2023-02-19T15:11:46;98967.16;;;13.72;50.26
13235;BME280;6683;48.506;9.050;2023-02-19T15:14:53;98977.34;;;13.68;50.36
13235;BME280;6683;48.506;9.050;2023-02-19T15:17:57;98977.72;;;13.65;50.69
13235;BME280;6683;48.506;9.050;2023-02-19T15:21:03;98969.09;;;13.63;50.59
13235;BME280;6683;48.506;9.050;2023-02-19T15:24:06;98973.59;;;13.62;50.66
13235;BME280;6683;48.506;9.050;2023-02-19T15:27:15;98981.94;;;13.59;50.73
13235;BME280;6683;48.506;9.050;2023-02-19T15:30:25;98991.09;;;13.57;50.98
13235;BME280;6683;48.506;9.050;2023-02-19T15:33:29;98984.13;;;13.56;50.90
13235;BME280;6683;48.506;9.050;2023-02-19T15:36:33;98998.41;;;13.55;51.19
13235;BME280;6683;48.506;9.050;2023-02-19T15:39:40;99003.28;;;13.51;51.23
13235;BME280;6683;48.506;9.050;2023-02-19T15:42:46;99003.06;;;13.53;51.78
13235;BME280;6683;48.506;9.050;2023-02-19T15:45:51;99015.50;;;13.52;51.48
13235;BME280;6683;48.506;9.050;2023-02-19T15:49:01;99011.03;;;13.53;51.77
13235;BME280;6683;48.506;9.050;2023-02-19T15:52:08;99004.69;;;13.54;51.81
13235;BME280;6683;48.506;9.050;2023-02-19T15:55:28;99006.91;;;13.50;51.92
13235;BME280;6683;48.506;9.050;2023-02-19T15:58:38;99010.59;;;13.49;51.93
13235;BME280;6683;48.506;9.050;2023-02-19T16:01:44;99010.59;;;13.49;51.96
13235;BME280;6683;48.506;9.050;2023-02-19T16:04:47;99009.75;;;13.49;52.12
13235;BME280;6683;48.506;9.050;2023-02-19T16:08:06;99010.94;;;13.46;52.45
13235;BME280;6683;48.506;9.050;2023-02-19T16:11:28;99002.16;;;13.46;52.48
13235;BME280;6683;48.506;9.050;2023-02-19T16:14:32;98999.69;;;13.44;52.49
13235;BME280;6683;48.506;9.050;2023-02-19T16:17:37;99003.72;;;13.40;52.58
13235;BME280;6683;48.506;9.050;2023-02-19T16:20:46;99007.75;;;13.36;52.79
13235;BME280;6683;48.506;9.050;2023-02-19T16:23:52;99014.44;;;13.32;52.93
13235;BME280;6683;48.506;9.050;2023-02-19T16:26:59;99021.75;;;13.30;53.03
13235;BME280;6683;48.506;9.050;2023-02-19T16:30:07;99030.25;;;13.26;53.13
13235;BME280;6683;48.506;9.050;2023-02-19T16:33:36;99030.97;;;13.20;53.26
13235;BME280;6683;48.506;9.050;2023-02-19T16:36:39;99038.47;;;13.16;53.29
13235;BME280;6683;48.506;9.050;2023-02-19T16:39:43;99030.88;;;13.13;53.51
13235;BME280;6683;48.506;9.050;2023-02-19T16:43:26;99026.13;;;13.09;53.47
13235;BME280;6683;48.506;9.050;2023-02-19T16:46:30;99034.47;;;13.06;53.69
13235;BME280;6683;48.506;9.050;2023-02-19T16:49:34;99032.47;;;13.00;53.79
13235;BME280;6683;48.506;9.050;2023-02-19T16:52:50;99023.63;;;12.93;53.91
13235;BME280;6683;48.506;9.050;2023-02-19T16:55:52;99027.44;;;12.90;53.85
13235;BME280;6683;48.506;9.050;2023-02-19T16:58:55;99020.03;;;12.85;54.05